Time,TemperatureF,DewpointF,PressureIn,WindDirection,WindDirectionDegrees,WindSpeedMPH,WindSpeedGustMPH,Humidity,HourlyPrecipIn,Conditions,Clouds,dailyrainin,SoftwareType,DateUTC
2013-09-21 00:01:00,65.0,60.7,30.00,South,180,2.0,3.0,86,0.00,,,0.00,Wunderground v.1.15,2013-09-21 04:01:00,
2013-09-21 00:03:00,65.0,60.7,30.00,South,173,2.0,4.0,86,0.00,,,0.00,Wunderground v.1.15,2013-09-21 04:03:00,
2013-09-21 00:05:00,65.0,60.7,30.00,SSE,165,2.0,4.0,86,0.00,,,0.00,Wunderground v.1.15,2013-09-21 04:05:00,
2013-09-21 00:06:00,64.9,60.6,30.00,SSE,165,2.0,5.0,86,0.00,,,0.00,Wunderground v.1.15,2013-09-21 04:06:00,
2013-09-21 00:12:00,64.9,60.9,30.00,South,173,2.0,4.0,87,0.00,,,0.00,Wunderground v.1.15,2013-09-21 04:12:00,
2013-09-21 00:17:00,64.9,60.9,30.01,South,174,3.0,5.0,87,0.00,,,0.00,Wunderground v.1.15,2013-09-21 04:17:00,
2013-09-21 00:19:00,64.9,61.3,30.01,South,186,3.0,5.0,88,0.00,,,0.00,Wunderground v.1.15,2013-09-21 04:19:00,
2013-09-21 00:25:00,64.9,61.3,30.01,SSW,193,3.0,5.0,88,0.00,,,0.00,Wunderground v.1.15,2013-09-21 04:25:00,
2013-09-21 00:31:00,64.8,61.5,30.00,South,178,3.0,4.0,89,0.00,,,0.00,Wunderground v.1.15,2013-09-21 04:31:00,
2013-09-21 00:36:00,64.7,61.4,30.00,SSW,196,3.0,5.0,89,0.00,,,0.00,Wunderground v.1.15,2013-09-21 04:36:00,
2013-09-21 00:42:00,64.6,61.3,30.00,South,186,3.0,5.0,89,0.00,,,0.00,Wunderground v.1.15,2013-09-21 04:42:00,
2013-09-21 00:47:00,64.6,61.3,30.00,SSW,193,3.0,5.0,89,0.00,,,0.00,Wunderground v.1.15,2013-09-21 04:47:00,
2013-09-21 00:53:00,64.6,61.6,30.00,SSW,196,4.0,6.0,90,0.00,,,0.00,Wunderground v.1.15,2013-09-21 04:53:00,
2013-09-21 00:58:00,64.7,61.4,30.00,SSW,197,4.0,6.0,89,0.00,,,0.00,Wunderground v.1.15,2013-09-21 04:58:00,
2013-09-21 01:03:00,64.6,61.3,30.00,SSW,200,3.0,3.0,89,0.00,,,0.00,Wunderground v.1.15,2013-09-21 05:03:00,
2013-09-21 01:09:00,64.5,61.2,30.00,SSW,200,2.0,3.0,89,0.00,,,0.00,Wunderground v.1.15,2013-09-21 05:09:00,
2013-09-21 01:15:00,64.3,61.0,30.00,SSW,200,1.0,2.0,89,0.00,,,0.00,Wunderground v.1.15,2013-09-21 05:15:00,
2013-09-21 01:20:00,64.0,60.7,30.00,SSW,200,1.0,1.0,89,0.00,,,0.00,Wunderground v.1.15,2013-09-21 05:20:00,
2013-09-21 01:26:00,63.6,60.3,30.00,SSW,200,2.0,3.0,89,0.00,,,0.00,Wunderground v.1.15,2013-09-21 05:26:00,
2013-09-21 01:31:00,63.3,60.3,30.00,SSW,200,2.0,2.0,90,0.00,,,0.00,Wunderground v.1.15,2013-09-21 05:31:00,
2013-09-21 01:37:00,63.0,60.0,30.00,SSW,200,0.0,2.0,90,0.00,,,0.00,Wunderground v.1.15,2013-09-21 05:37:00,
2013-09-21 01:43:00,62.8,59.8,29.99,SSW,200,0.0,0.0,90,0.00,,,0.00,Wunderground v.1.15,2013-09-21 05:43:00,
2013-09-21 01:48:00,62.6,59.6,29.99,SSW,200,0.0,0.0,90,0.00,,,0.00,Wunderground v.1.15,2013-09-21 05:48:00,
2013-09-21 01:54:00,62.3,59.3,29.99,SSW,200,0.0,0.0,90,0.00,,,0.00,Wunderground v.1.15,2013-09-21 05:54:00,
2013-09-21 01:59:00,62.0,59.0,29.98,SSW,200,0.0,0.0,90,0.00,,,0.00,Wunderground v.1.15,2013-09-21 05:59:00,
2013-09-21 02:05:00,61.7,58.7,29.98,SSW,200,0.0,0.0,90,0.00,,,0.00,Wunderground v.1.15,2013-09-21 06:05:00,
2013-09-21 02:10:00,61.4,58.4,29.98,SSW,200,0.0,0.0,90,0.00,,,0.00,Wunderground v.1.15,2013-09-21 06:10:00,
2013-09-21 02:16:00,61.0,58.0,29.98,SSW,200,0.0,1.0,90,0.00,,,0.00,Wunderground v.1.15,2013-09-21 06:16:00,
2013-09-21 02:22:00,60.7,57.7,29.98,SSW,200,0.0,0.0,90,0.00,,,0.00,Wunderground v.1.15,2013-09-21 06:22:00,
2013-09-21 02:27:00,60.5,57.6,29.98,SSW,200,0.0,0.0,90,0.00,,,0.00,Wunderground v.1.15,2013-09-21 06:27:00,
2013-09-21 02:32:00,60.3,57.7,29.97,SSW,200,0.0,0.0,91,0.00,,,0.00,Wunderground v.1.15,2013-09-21 06:32:00,
2013-09-21 02:37:00,60.2,57.6,29.97,SSW,200,0.0,0.0,91,0.00,,,0.00,Wunderground v.1.15,2013-09-21 06:37:00,
2013-09-21 02:43:00,60.0,57.4,29.97,SSW,200,0.0,0.0,91,0.00,,,0.00,Wunderground v.1.15,2013-09-21 06:43:00,
2013-09-21 02:49:00,59.8,57.2,29.97,SSW,200,0.0,0.0,91,0.00,,,0.00,Wunderground v.1.15,2013-09-21 06:49:00,
2013-09-21 02:54:00,59.7,57.4,29.97,SSW,200,0.0,0.0,92,0.00,,,0.00,Wunderground v.1.15,2013-09-21 06:54:00,
2013-09-21 03:00:00,59.7,57.4,29.96,SSW,200,0.0,0.0,92,0.00,,,0.00,Wunderground v.1.15,2013-09-21 07:00:00,
2013-09-21 03:05:00,59.6,57.3,29.96,SSW,200,0.0,0.0,92,0.00,,,0.00,Wunderground v.1.15,2013-09-21 07:05:00,
2013-09-21 03:11:00,59.5,57.2,29.96,SSW,200,0.0,0.0,92,0.00,,,0.00,Wunderground v.1.15,2013-09-21 07:11:00,
2013-09-21 03:17:00,59.3,57.0,29.96,SSW,200,0.0,0.0,92,0.00,,,0.00,Wunderground v.1.15,2013-09-21 07:17:00,
2013-09-21 03:23:00,59.1,56.8,29.96,SSW,200,0.0,0.0,92,0.00,,,0.00,Wunderground v.1.15,2013-09-21 07:23:00,
2013-09-21 03:29:00,58.9,56.6,29.95,SSW,200,0.0,0.0,92,0.00,,,0.00,Wunderground v.1.15,2013-09-21 07:29:00,
2013-09-21 03:34:00,58.9,56.9,29.96,SSW,200,0.0,0.0,93,0.00,,,0.00,Wunderground v.1.15,2013-09-21 07:34:00,
2013-09-21 03:40:00,58.8,56.5,29.95,SSW,200,0.0,0.0,92,0.00,,,0.00,Wunderground v.1.15,2013-09-21 07:40:00,
2013-09-21 03:45:00,58.7,56.4,29.95,SSW,200,0.0,0.0,92,0.00,,,0.00,Wunderground v.1.15,2013-09-21 07:45:00,
2013-09-21 03:51:00,58.6,56.3,29.95,SSW,200,0.0,0.0,92,0.00,,,0.00,Wunderground v.1.15,2013-09-21 07:51:00,
2013-09-21 03:57:00,58.5,56.5,29.95,SSW,200,0.0,0.0,93,0.00,,,0.00,Wunderground v.1.15,2013-09-21 07:57:00,
2013-09-21 04:02:00,58.4,56.4,29.95,SSW,200,0.0,0.0,93,0.00,,,0.00,Wunderground v.1.15,2013-09-21 08:02:00,
2013-09-21 04:08:00,58.6,56.9,29.95,SSW,200,0.0,0.0,94,0.00,,,0.00,Wunderground v.1.15,2013-09-21 08:08:00,
2013-09-21 04:13:00,59.0,57.3,29.95,SSW,200,0.0,0.0,94,0.00,,,0.00,Wunderground v.1.15,2013-09-21 08:13:00,
2013-09-21 04:19:00,59.2,57.5,29.95,SSW,200,0.0,0.0,94,0.00,,,0.00,Wunderground v.1.15,2013-09-21 08:19:00,
2013-09-21 04:24:00,59.2,57.5,29.95,SSW,200,0.0,0.0,94,0.00,,,0.00,Wunderground v.1.15,2013-09-21 08:24:00,
2013-09-21 04:30:00,59.1,57.1,29.95,SSW,200,0.0,0.0,93,0.00,,,0.00,Wunderground v.1.15,2013-09-21 08:30:00,
2013-09-21 04:36:00,59.1,57.4,29.95,SSW,200,0.0,0.0,94,0.00,,,0.00,Wunderground v.1.15,2013-09-21 08:36:00,
2013-09-21 04:41:00,59.3,57.6,29.94,SSW,200,0.0,0.0,94,0.00,,,0.00,Wunderground v.1.15,2013-09-21 08:41:00,
2013-09-21 04:47:00,59.4,57.7,29.94,SSW,200,0.0,0.0,94,0.00,,,0.00,Wunderground v.1.15,2013-09-21 08:47:00,
2013-09-21 04:52:00,59.3,57.6,29.94,SSW,200,0.0,0.0,94,0.00,,,0.00,Wunderground v.1.15,2013-09-21 08:52:00,
2013-09-21 04:58:00,59.3,57.6,29.94,SSW,200,0.0,0.0,94,0.00,,,0.00,Wunderground v.1.15,2013-09-21 08:58:00,
2013-09-21 05:04:00,59.2,57.5,29.93,SSW,200,0.0,0.0,94,0.00,,,0.00,Wunderground v.1.15,2013-09-21 09:04:00,
2013-09-21 05:09:00,59.2,57.5,29.94,SSW,200,0.0,0.0,94,0.00,,,0.00,Wunderground v.1.15,2013-09-21 09:09:00,
2013-09-21 05:15:00,59.3,57.6,29.94,SSW,200,0.0,2.0,94,0.00,,,0.00,Wunderground v.1.15,2013-09-21 09:15:00,
2013-09-21 05:20:00,59.3,57.6,29.94,SSW,200,0.0,0.0,94,0.00,,,0.00,Wunderground v.1.15,2013-09-21 09:20:00,
2013-09-21 05:26:00,59.3,57.6,29.94,SSW,200,0.0,0.0,94,0.00,,,0.00,Wunderground v.1.15,2013-09-21 09:26:00,
2013-09-21 05:32:00,59.2,57.5,29.94,SSW,200,0.0,0.0,94,0.00,,,0.00,Wunderground v.1.15,2013-09-21 09:32:00,
2013-09-21 05:38:00,59.1,57.4,29.94,SSW,200,0.0,0.0,94,0.00,,,0.00,Wunderground v.1.15,2013-09-21 09:38:00,
2013-09-21 05:44:00,59.1,57.4,29.93,SSW,200,0.0,1.0,94,0.00,,,0.00,Wunderground v.1.15,2013-09-21 09:44:00,
2013-09-21 05:49:00,59.0,57.3,29.94,SSW,200,0.0,1.0,94,0.00,,,0.00,Wunderground v.1.15,2013-09-21 09:49:00,
2013-09-21 05:55:00,59.0,57.6,29.94,SSW,200,0.0,0.0,95,0.00,,,0.00,Wunderground v.1.15,2013-09-21 09:55:00,
2013-09-21 06:00:00,59.4,58.0,29.94,SSW,200,0.0,0.0,95,0.00,,,0.00,Wunderground v.1.15,2013-09-21 10:00:00,
2013-09-21 06:06:00,59.8,58.4,29.94,SSW,200,1.0,1.0,95,0.00,,,0.00,Wunderground v.1.15,2013-09-21 10:06:00,
2013-09-21 06:12:00,60.4,59.3,29.94,SSW,200,0.0,0.0,96,0.00,,,0.00,Wunderground v.1.15,2013-09-21 10:12:00,
2013-09-21 06:17:00,60.8,59.7,29.94,SSW,200,0.0,0.0,96,0.00,,,0.00,Wunderground v.1.15,2013-09-21 10:17:00,
2013-09-21 06:23:00,61.1,60.0,29.94,SSW,200,0.0,2.0,96,0.00,,,0.00,Wunderground v.1.15,2013-09-21 10:23:00,
2013-09-21 06:28:00,61.4,60.2,29.94,SSW,200,1.0,4.0,96,0.00,,,0.00,Wunderground v.1.15,2013-09-21 10:28:00,
2013-09-21 06:34:00,61.8,60.6,29.94,NE,39,2.0,2.0,96,0.00,,,0.00,Wunderground v.1.15,2013-09-21 10:34:00,
2013-09-21 06:39:00,62.0,60.8,29.94,NNE,32,2.0,3.0,96,0.00,,,0.00,Wunderground v.1.15,2013-09-21 10:39:00,
2013-09-21 06:45:00,62.0,60.6,29.94,North,9,3.0,4.0,95,0.00,,,0.00,Wunderground v.1.15,2013-09-21 10:45:00,
2013-09-21 06:50:00,62.0,60.6,29.94,NNE,24,3.0,3.0,95,0.00,,,0.00,Wunderground v.1.15,2013-09-21 10:50:00,
2013-09-21 06:56:00,61.9,60.5,29.94,NNE,24,2.0,3.0,95,0.00,,,0.00,Wunderground v.1.15,2013-09-21 10:56:00,
2013-09-21 07:02:00,61.9,60.5,29.94,North,9,2.0,3.0,95,0.00,,,0.00,Wunderground v.1.15,2013-09-21 11:02:00,
2013-09-21 07:07:00,61.9,60.5,29.94,NNE,12,2.0,3.0,95,0.00,,,0.00,Wunderground v.1.15,2013-09-21 11:07:00,
2013-09-21 07:13:00,62.0,60.6,29.93,NNE,17,1.0,3.0,95,0.00,,,0.00,Wunderground v.1.15,2013-09-21 11:13:00,
2013-09-21 07:18:00,62.2,61.0,29.93,North,5,2.0,4.0,96,0.00,,,0.00,Wunderground v.1.15,2013-09-21 11:18:00,
2013-09-21 07:24:00,62.5,61.3,29.93,NNE,19,2.0,3.0,96,0.00,,,0.00,Wunderground v.1.15,2013-09-21 11:24:00,
2013-09-21 07:29:00,62.6,61.4,29.93,NNE,26,2.0,3.0,96,0.00,,,0.00,Wunderground v.1.15,2013-09-21 11:29:00,
2013-09-21 07:35:00,62.8,61.6,29.93,NNE,24,2.0,3.0,96,0.00,,,0.00,Wunderground v.1.15,2013-09-21 11:35:00,
2013-09-21 07:41:00,63.0,61.8,29.93,NNW,344,1.0,3.0,96,0.00,,,0.00,Wunderground v.1.15,2013-09-21 11:41:00,
2013-09-21 07:46:00,63.2,62.0,29.93,NNW,330,2.0,3.0,96,0.00,,,0.00,Wunderground v.1.15,2013-09-21 11:46:00,
2013-09-21 07:52:00,63.4,62.2,29.93,NNW,332,2.0,3.0,96,0.00,,,0.00,Wunderground v.1.15,2013-09-21 11:52:00,
2013-09-21 07:57:00,63.5,62.3,29.93,NNW,332,1.0,3.0,96,0.00,,,0.00,Wunderground v.1.15,2013-09-21 11:57:00,
2013-09-21 08:03:00,63.7,62.5,29.93,NNW,332,1.0,2.0,96,0.00,,,0.00,Wunderground v.1.15,2013-09-21 12:03:00,
2013-09-21 08:08:00,64.0,62.8,29.92,NNW,338,1.0,4.0,96,0.00,,,0.00,Wunderground v.1.15,2013-09-21 12:08:00,
2013-09-21 08:14:00,64.1,62.9,29.92,NNW,347,2.0,5.0,96,0.00,,,0.00,Wunderground v.1.15,2013-09-21 12:14:00,
2013-09-21 08:19:00,64.4,63.2,29.92,NNW,346,2.0,5.0,96,0.00,,,0.00,Wunderground v.1.15,2013-09-21 12:19:00,
2013-09-21 08:25:00,64.8,63.6,29.92,NNW,347,2.0,3.0,96,0.00,,,0.00,Wunderground v.1.15,2013-09-21 12:25:00,
2013-09-21 08:31:00,65.2,64.0,29.92,NNW,347,1.0,2.0,96,0.00,,,0.00,Wunderground v.1.15,2013-09-21 12:31:00,
2013-09-21 08:36:00,65.4,64.2,29.92,NNW,347,1.0,2.0,96,0.00,,,0.00,Wunderground v.1.15,2013-09-21 12:36:00,
2013-09-21 08:42:00,65.9,64.7,29.91,NNW,348,0.0,1.0,96,0.00,,,0.00,Wunderground v.1.15,2013-09-21 12:42:00,
2013-09-21 08:47:00,66.4,65.2,29.92,NNW,348,0.0,1.0,96,0.00,,,0.00,Wunderground v.1.15,2013-09-21 12:47:00,
2013-09-21 08:53:00,66.9,65.7,29.92,NNW,348,0.0,0.0,96,0.00,,,0.00,Wunderground v.1.15,2013-09-21 12:53:00,
2013-09-21 08:58:00,67.1,65.9,29.91,NNW,348,0.0,0.0,96,0.00,,,0.00,Wunderground v.1.15,2013-09-21 12:58:00,
2013-09-21 09:04:00,67.5,66.3,29.91,NNW,348,0.0,0.0,96,0.00,,,0.00,Wunderground v.1.15,2013-09-21 13:04:00,
2013-09-21 09:10:00,68.3,67.1,29.91,NNW,348,0.0,0.0,96,0.00,,,0.00,Wunderground v.1.15,2013-09-21 13:10:00,
2013-09-21 09:16:00,69.0,67.8,29.91,East,84,0.0,1.0,96,0.00,,,0.00,Wunderground v.1.15,2013-09-21 13:16:00,
2013-09-21 09:23:00,70.1,68.6,29.91,SSE,148,1.0,1.0,95,0.00,,,0.00,Wunderground v.1.15,2013-09-21 13:23:00,
2013-09-21 09:28:00,70.4,68.6,29.91,SSE,147,1.0,2.0,94,0.00,,,0.00,Wunderground v.1.15,2013-09-21 13:28:00,
2013-09-21 09:34:00,70.8,68.7,29.90,SE,126,0.0,2.0,93,0.00,,,0.00,Wunderground v.1.15,2013-09-21 13:34:00,
2013-09-21 09:39:00,71.8,69.7,29.90,ESE,123,0.0,2.0,93,0.00,,,0.00,Wunderground v.1.15,2013-09-21 13:39:00,
2013-09-21 09:45:00,72.5,69.4,29.90,ESE,117,1.0,4.0,90,0.00,,,0.00,Wunderground v.1.15,2013-09-21 13:45:00,
2013-09-21 09:51:00,72.8,69.0,29.90,ESE,102,2.0,6.0,88,0.00,,,0.00,Wunderground v.1.15,2013-09-21 13:51:00,
2013-09-21 09:56:00,72.6,68.2,29.90,ESE,107,4.0,7.0,86,0.00,,,0.00,Wunderground v.1.15,2013-09-21 13:56:00,
2013-09-21 10:02:00,72.3,67.9,29.89,ESE,102,5.0,6.0,86,0.00,,,0.00,Wunderground v.1.15,2013-09-21 14:02:00,
2013-09-21 10:07:00,72.2,67.8,29.89,ESE,107,5.0,6.0,86,0.00,,,0.00,Wunderground v.1.15,2013-09-21 14:07:00,
2013-09-21 10:13:00,72.4,68.0,29.89,ESE,102,4.0,6.0,86,0.00,,,0.00,Wunderground v.1.15,2013-09-21 14:13:00,
2013-09-21 10:18:00,72.8,68.0,29.89,ESE,109,4.0,6.0,85,0.00,,,0.00,Wunderground v.1.15,2013-09-21 14:18:00,
2013-09-21 10:24:00,73.3,68.5,29.89,ESE,113,5.0,8.0,85,0.00,,,0.00,Wunderground v.1.15,2013-09-21 14:24:00,
2013-09-21 10:30:00,73.6,68.5,29.89,ESE,106,4.0,6.0,84,0.00,,,0.00,Wunderground v.1.15,2013-09-21 14:30:00,
2013-09-21 10:35:00,74.0,68.5,29.89,ESE,115,3.0,8.0,83,0.00,,,0.00,Wunderground v.1.15,2013-09-21 14:35:00,
2013-09-21 10:41:00,74.2,67.6,29.89,East,98,3.0,4.0,80,0.00,,,0.00,Wunderground v.1.15,2013-09-21 14:41:00,
2013-09-21 10:46:00,73.8,67.2,29.88,SSE,148,3.0,5.0,80,0.00,,,0.00,Wunderground v.1.15,2013-09-21 14:46:00,
2013-09-21 10:52:00,73.9,67.7,29.88,South,173,3.0,3.0,81,0.00,,,0.00,Wunderground v.1.15,2013-09-21 14:52:00,
2013-09-21 10:58:00,73.8,67.6,29.88,SSE,157,3.0,8.0,81,0.00,,,0.00,Wunderground v.1.15,2013-09-21 14:58:00,
2013-09-21 11:03:00,73.7,67.9,29.89,South,169,3.0,5.0,82,0.00,,,0.00,Wunderground v.1.15,2013-09-21 15:03:00,
2013-09-21 11:09:00,73.7,67.9,29.89,SSE,165,4.0,9.0,82,0.00,,,0.00,Wunderground v.1.15,2013-09-21 15:09:00,
2013-09-21 11:14:00,73.6,67.8,29.88,South,190,5.0,8.0,82,0.00,,,0.00,Wunderground v.1.15,2013-09-21 15:14:00,
2013-09-21 11:20:00,73.5,68.4,29.88,SSE,161,6.0,6.0,84,0.00,,,0.00,Wunderground v.1.15,2013-09-21 15:20:00,
2013-09-21 11:26:00,73.5,68.4,29.88,SE,133,4.0,9.0,84,0.00,,,0.00,Wunderground v.1.15,2013-09-21 15:26:00,
2013-09-21 11:31:00,73.6,68.5,29.88,South,183,4.0,8.0,84,0.00,,,0.00,Wunderground v.1.15,2013-09-21 15:31:00,
2013-09-21 11:37:00,73.8,68.3,29.88,South,169,5.0,10.0,83,0.00,,,0.00,Wunderground v.1.15,2013-09-21 15:37:00,
2013-09-21 11:42:00,73.9,68.8,29.88,SSE,165,6.0,9.0,84,0.00,,,0.00,Wunderground v.1.15,2013-09-21 15:42:00,
2013-09-21 11:48:00,74.0,68.9,29.87,South,174,5.0,9.0,84,0.00,,,0.00,Wunderground v.1.15,2013-09-21 15:48:00,
2013-09-21 11:53:00,74.4,68.5,29.87,South,175,6.0,14.0,82,0.00,,,0.00,Wunderground v.1.15,2013-09-21 15:53:00,
2013-09-21 11:59:00,74.3,68.4,29.87,South,182,7.0,14.0,82,0.00,,,0.00,Wunderground v.1.15,2013-09-21 15:59:00,
2013-09-21 12:04:00,74.2,68.3,29.87,SSE,158,8.0,14.0,82,0.00,,,0.00,Wunderground v.1.15,2013-09-21 16:04:00,
2013-09-21 12:10:00,74.5,68.6,29.87,SSE,166,6.0,6.0,82,0.00,,,0.00,Wunderground v.1.15,2013-09-21 16:10:00,
2013-09-21 12:16:00,74.5,68.3,29.87,SSE,167,6.0,8.0,81,0.00,,,0.00,Wunderground v.1.15,2013-09-21 16:16:00,
2013-09-21 12:21:00,74.2,67.6,29.87,SSE,163,7.0,9.0,80,0.00,,,0.00,Wunderground v.1.15,2013-09-21 16:21:00,
2013-09-21 12:27:00,73.6,67.4,29.86,South,171,8.0,10.0,81,0.00,,,0.00,Wunderground v.1.15,2013-09-21 16:27:00,
2013-09-21 12:32:00,73.8,68.0,29.87,South,178,7.0,7.0,82,0.00,,,0.00,Wunderground v.1.15,2013-09-21 16:32:00,
2013-09-21 12:37:00,74.5,68.3,29.86,SSE,161,5.0,9.0,81,0.00,,,0.00,Wunderground v.1.15,2013-09-21 16:37:00,
2013-09-21 12:43:00,74.4,67.5,29.86,South,181,6.0,8.0,79,0.00,,,0.00,Wunderground v.1.15,2013-09-21 16:43:00,
2013-09-21 12:48:00,74.3,67.7,29.86,SSE,164,7.0,12.0,80,0.00,,,0.00,Wunderground v.1.15,2013-09-21 16:48:00,
2013-09-21 12:54:00,74.1,67.5,29.86,SSE,162,6.0,7.0,80,0.00,,,0.00,Wunderground v.1.15,2013-09-21 16:54:00,
2013-09-21 13:00:00,73.6,67.0,29.85,SSE,164,5.0,7.0,80,0.00,,,0.00,Wunderground v.1.15,2013-09-21 17:00:00,
2013-09-21 13:05:00,73.5,67.3,29.85,SSE,165,5.0,8.0,81,0.00,,,0.00,Wunderground v.1.15,2013-09-21 17:05:00,
2013-09-21 13:11:00,73.8,67.6,29.84,SSE,166,4.0,5.0,81,0.00,,,0.00,Wunderground v.1.15,2013-09-21 17:11:00,
2013-09-21 13:16:00,74.4,67.8,29.85,South,177,4.0,7.0,80,0.00,,,0.00,Wunderground v.1.15,2013-09-21 17:16:00,
2013-09-21 13:22:00,74.9,67.2,29.84,SSE,163,5.0,9.0,77,0.00,,,0.00,Wunderground v.1.15,2013-09-21 17:22:00,
2013-09-21 13:28:00,75.2,67.1,29.83,South,174,5.0,9.0,76,0.00,,,0.00,Wunderground v.1.15,2013-09-21 17:28:00,
2013-09-21 13:33:00,75.6,67.9,29.83,South,180,4.0,6.0,77,0.00,,,0.00,Wunderground v.1.15,2013-09-21 17:33:00,
2013-09-21 13:39:00,76.1,68.0,29.83,South,171,3.0,7.0,76,0.00,,,0.00,Wunderground v.1.15,2013-09-21 17:39:00,
2013-09-21 13:44:00,76.2,67.7,29.83,East,90,4.0,9.0,75,0.00,,,0.00,Wunderground v.1.15,2013-09-21 17:44:00,
2013-09-21 13:50:00,75.9,67.4,29.83,South,185,5.0,6.0,75,0.00,,,0.00,Wunderground v.1.15,2013-09-21 17:50:00,
2013-09-21 13:55:00,75.7,67.6,29.83,SSE,163,5.0,6.0,76,0.00,,,0.00,Wunderground v.1.15,2013-09-21 17:55:00,
2013-09-21 14:01:00,75.4,67.3,29.82,South,173,5.0,8.0,76,0.00,,,0.00,Wunderground v.1.15,2013-09-21 18:01:00,
2013-09-21 14:06:00,75.1,67.4,29.83,South,171,6.0,8.0,77,0.00,,,0.00,Wunderground v.1.15,2013-09-21 18:06:00,
2013-09-21 14:12:00,75.0,67.3,29.82,SSE,165,5.0,7.0,77,0.00,,,0.00,Wunderground v.1.15,2013-09-21 18:12:00,
2013-09-21 14:17:00,74.6,67.3,29.82,SSE,159,4.0,7.0,78,0.00,,,0.00,Wunderground v.1.15,2013-09-21 18:17:00,
2013-09-21 14:23:00,74.3,67.4,29.82,SSW,195,4.0,8.0,79,0.00,,,0.00,Wunderground v.1.15,2013-09-21 18:23:00,
2013-09-21 14:29:00,74.2,67.3,29.81,SE,142,4.0,8.0,79,0.00,,,0.00,Wunderground v.1.15,2013-09-21 18:29:00,
2013-09-21 14:34:00,73.8,67.2,29.81,South,172,5.0,8.0,80,0.00,,,0.00,Wunderground v.1.15,2013-09-21 18:34:00,
2013-09-21 14:39:00,73.8,67.6,29.81,SE,128,5.0,8.0,81,0.00,,,0.00,Wunderground v.1.15,2013-09-21 18:39:00,
2013-09-21 14:45:00,74.3,67.7,29.81,SSE,168,5.0,7.0,80,0.00,,,0.00,Wunderground v.1.15,2013-09-21 18:45:00,
2013-09-21 14:51:00,74.6,68.0,29.80,South,169,4.0,7.0,80,0.00,,,0.00,Wunderground v.1.15,2013-09-21 18:51:00,
2013-09-21 14:56:00,74.9,68.3,29.80,ESE,107,3.0,7.0,80,0.00,,,0.00,Wunderground v.1.15,2013-09-21 18:56:00,
2013-09-21 15:02:00,75.6,68.6,29.80,SSE,153,3.0,4.0,79,0.00,,,0.00,Wunderground v.1.15,2013-09-21 19:02:00,
2013-09-21 15:07:00,76.0,68.3,29.80,SSE,155,3.0,6.0,77,0.00,,,0.00,Wunderground v.1.15,2013-09-21 19:07:00,
2013-09-21 15:35:00,76.2,67.3,29.79,SSE,153,4.0,7.0,74,0.00,,,0.00,Wunderground v.1.15,2013-09-21 19:35:00,
2013-09-21 15:40:00,76.0,66.7,29.79,SSE,165,3.0,4.0,73,0.00,,,0.00,Wunderground v.1.15,2013-09-21 19:40:00,
2013-09-21 15:48:00,76.0,67.1,29.78,SSE,163,3.0,5.0,74,0.00,,,0.00,Wunderground v.1.15,2013-09-21 19:48:00,
2013-09-21 17:45:00,73.0,68.9,29.76,South,172,3.0,7.0,87,0.00,,,0.00,Wunderground v.1.15,2013-09-21 21:45:00,
2013-09-21 17:51:00,72.6,68.8,29.75,SE,144,3.0,4.0,88,0.00,,,0.00,Wunderground v.1.15,2013-09-21 21:51:00,
2013-09-21 17:56:00,72.5,69.1,29.75,SSE,159,4.0,6.0,89,0.00,,,0.00,Wunderground v.1.15,2013-09-21 21:56:00,
2013-09-21 18:01:00,72.5,69.1,29.75,South,178,3.0,3.0,89,0.00,,,0.00,Wunderground v.1.15,2013-09-21 22:01:00,
2013-09-21 18:07:00,72.4,69.0,29.75,South,185,3.0,7.0,89,0.00,,,0.00,Wunderground v.1.15,2013-09-21 22:07:00,
2013-09-21 18:13:00,72.3,68.9,29.75,SSE,150,2.0,5.0,89,0.00,,,0.00,Wunderground v.1.15,2013-09-21 22:13:00,
2013-09-21 18:19:00,72.2,69.1,29.74,SE,140,2.0,5.0,90,0.00,,,0.00,Wunderground v.1.15,2013-09-21 22:19:00,
2013-09-21 18:25:00,72.1,69.0,29.74,SSE,147,2.0,4.0,90,0.00,,,0.00,Wunderground v.1.15,2013-09-21 22:25:00,
2013-09-21 18:31:00,72.0,68.9,29.74,SE,136,2.0,5.0,90,0.00,,,0.00,Wunderground v.1.15,2013-09-21 22:31:00,
2013-09-21 18:36:00,71.9,68.8,29.73,South,176,2.0,5.0,90,0.00,,,0.00,Wunderground v.1.15,2013-09-21 22:36:00,
2013-09-21 18:42:00,71.8,68.7,29.73,SSE,150,3.0,4.0,90,0.00,,,0.00,Wunderground v.1.15,2013-09-21 22:42:00,
2013-09-21 18:47:00,71.7,68.6,29.73,SSE,155,4.0,9.0,90,0.00,,,0.00,Wunderground v.1.15,2013-09-21 22:47:00,
2013-09-21 18:53:00,71.5,68.7,29.73,SSE,165,4.0,8.0,91,0.00,,,0.00,Wunderground v.1.15,2013-09-21 22:53:00,
2013-09-21 18:59:00,71.4,68.6,29.73,SE,129,4.0,8.0,91,0.00,,,0.00,Wunderground v.1.15,2013-09-21 22:59:00,
2013-09-21 19:04:00,71.3,68.5,29.73,SSE,163,5.0,6.0,91,0.00,,,0.00,Wunderground v.1.15,2013-09-21 23:04:00,
2013-09-21 19:10:00,71.2,68.8,29.73,SSE,151,4.0,6.0,92,0.00,,,0.00,Wunderground v.1.15,2013-09-21 23:10:00,
2013-09-21 19:15:00,71.2,68.8,29.73,South,179,4.0,7.0,92,0.00,,,0.00,Wunderground v.1.15,2013-09-21 23:15:00,
2013-09-21 19:21:00,71.1,68.7,29.73,South,170,4.0,6.0,92,0.00,,,0.00,Wunderground v.1.15,2013-09-21 23:21:00,
2013-09-21 19:26:00,71.0,68.6,29.73,South,186,4.0,11.0,92,0.00,,,0.00,Wunderground v.1.15,2013-09-21 23:26:00,
2013-09-21 19:32:00,70.9,68.5,29.73,South,170,5.0,7.0,92,0.00,,,0.00,Wunderground v.1.15,2013-09-21 23:32:00,
2013-09-21 19:38:00,70.8,68.4,29.73,SSE,164,4.0,7.0,92,0.00,,,0.00,Wunderground v.1.15,2013-09-21 23:38:00,
2013-09-21 19:43:00,70.8,68.4,29.73,SSE,150,4.0,6.0,92,0.00,,,0.00,Wunderground v.1.15,2013-09-21 23:43:00,
2013-09-21 19:49:00,70.8,68.4,29.73,SSE,149,4.0,6.0,92,0.00,,,0.00,Wunderground v.1.15,2013-09-21 23:49:00,
2013-09-21 19:54:00,70.7,68.6,29.73,SSE,163,4.0,6.0,93,0.00,,,0.00,Wunderground v.1.15,2013-09-21 23:54:00,
2013-09-21 19:59:00,70.7,68.6,29.72,SSE,156,4.0,6.0,93,0.00,,,0.00,Wunderground v.1.15,2013-09-21 23:59:00,
2013-09-21 20:05:00,70.7,68.6,29.72,SE,140,4.0,6.0,93,0.00,,,0.00,Wunderground v.1.15,2013-09-22 00:05:00,
2013-09-21 20:10:00,70.6,68.5,29.72,SSE,161,4.0,4.0,93,0.00,,,0.00,Wunderground v.1.15,2013-09-22 00:10:00,
2013-09-21 20:16:00,70.6,68.2,29.72,SSE,163,4.0,6.0,92,0.00,,,0.00,Wunderground v.1.15,2013-09-22 00:16:00,
2013-09-21 20:22:00,70.6,68.5,29.72,SSE,165,4.0,5.0,93,0.00,,,0.00,Wunderground v.1.15,2013-09-22 00:22:00,
2013-09-21 20:27:00,70.6,68.5,29.72,SSW,203,4.0,7.0,93,0.00,,,0.00,Wunderground v.1.15,2013-09-22 00:27:00,
2013-09-21 20:33:00,70.6,68.5,29.72,South,175,4.0,6.0,93,0.00,,,0.00,Wunderground v.1.15,2013-09-22 00:33:00,
2013-09-21 20:38:00,70.6,68.5,29.72,SE,144,4.0,9.0,93,0.00,,,0.00,Wunderground v.1.15,2013-09-22 00:38:00,
2013-09-21 20:44:00,70.5,68.4,29.72,South,176,5.0,5.0,93,0.00,,,0.00,Wunderground v.1.15,2013-09-22 00:44:00,
2013-09-21 20:49:00,70.5,68.4,29.72,SSE,150,5.0,5.0,93,0.00,,,0.00,Wunderground v.1.15,2013-09-22 00:49:00,
2013-09-21 20:55:00,70.5,68.4,29.72,SSE,155,4.0,7.0,93,0.00,,,0.00,Wunderground v.1.15,2013-09-22 00:55:00,
2013-09-21 21:00:00,70.5,68.4,29.72,SSE,155,4.0,4.0,93,0.00,,,0.00,Wunderground v.1.15,2013-09-22 01:00:00,
2013-09-21 21:06:00,70.5,68.4,29.72,SSE,159,5.0,8.0,93,0.00,,,0.00,Wunderground v.1.15,2013-09-22 01:06:00,
2013-09-21 21:11:00,70.5,68.4,29.72,South,182,5.0,8.0,93,0.00,,,0.00,Wunderground v.1.15,2013-09-22 01:11:00,
2013-09-21 21:17:00,70.5,68.4,29.72,SSE,161,5.0,8.0,93,0.00,,,0.00,Wunderground v.1.15,2013-09-22 01:17:00,
2013-09-21 21:23:00,70.5,68.4,29.72,South,172,5.0,8.0,93,0.00,,,0.00,Wunderground v.1.15,2013-09-22 01:23:00,
2013-09-21 21:28:00,70.5,68.4,29.72,South,173,5.0,8.0,93,0.00,,,0.00,Wunderground v.1.15,2013-09-22 01:28:00,
2013-09-21 21:34:00,70.5,68.4,29.71,SSE,153,5.0,6.0,93,0.00,,,0.00,Wunderground v.1.15,2013-09-22 01:34:00,
2013-09-21 21:39:00,70.4,68.3,29.71,SSE,148,4.0,8.0,93,0.00,,,0.00,Wunderground v.1.15,2013-09-22 01:39:00,
2013-09-21 21:45:00,70.4,68.3,29.71,South,179,5.0,8.0,93,0.00,,,0.00,Wunderground v.1.15,2013-09-22 01:45:00,
2013-09-21 21:50:00,70.4,68.3,29.71,South,171,6.0,8.0,93,0.00,,,0.00,Wunderground v.1.15,2013-09-22 01:50:00,
2013-09-21 21:56:00,70.4,68.3,29.71,SSE,163,6.0,8.0,93,0.00,,,0.00,Wunderground v.1.15,2013-09-22 01:56:00,
2013-09-21 22:02:00,70.3,68.2,29.72,South,188,5.0,10.0,93,0.00,,,0.00,Wunderground v.1.15,2013-09-22 02:02:00,
2013-09-21 22:07:00,70.3,68.2,29.71,SSW,194,5.0,10.0,93,0.22,,,0.03,Wunderground v.1.15,2013-09-22 02:07:00,
2013-09-21 22:13:00,70.2,68.4,29.71,SSE,165,5.0,6.0,94,0.23,,,0.06,Wunderground v.1.15,2013-09-22 02:13:00,
2013-09-21 22:18:00,70.1,68.3,29.71,SE,138,5.0,6.0,94,0.19,,,0.08,Wunderground v.1.15,2013-09-22 02:18:00,
2013-09-21 22:24:00,70.0,68.2,29.71,SSE,164,4.0,5.0,94,0.08,,,0.08,Wunderground v.1.15,2013-09-22 02:24:00,
2013-09-21 22:29:00,69.9,68.1,29.70,SE,126,3.0,6.0,94,0.06,,,0.09,Wunderground v.1.15,2013-09-22 02:29:00,
2013-09-21 22:35:00,69.9,68.1,29.70,South,171,3.0,5.0,94,0.06,,,0.09,Wunderground v.1.15,2013-09-22 02:35:00,
2013-09-21 22:40:00,69.8,68.3,29.70,South,180,3.0,5.0,95,0.04,,,0.09,Wunderground v.1.15,2013-09-22 02:40:00,
2013-09-21 22:46:00,69.8,68.3,29.70,SSE,158,3.0,5.0,95,0.00,,,0.09,Wunderground v.1.15,2013-09-22 02:46:00,
2013-09-21 22:52:00,69.8,68.3,29.70,SSE,165,4.0,7.0,95,0.00,,,0.09,Wunderground v.1.15,2013-09-22 02:52:00,
2013-09-21 22:57:00,69.8,68.3,29.70,SSE,161,5.0,8.0,95,0.00,,,0.09,Wunderground v.1.15,2013-09-22 02:57:00,
2013-09-21 23:03:00,69.8,68.3,29.70,South,170,5.0,6.0,95,0.00,,,0.10,Wunderground v.1.15,2013-09-22 03:03:00,
2013-09-21 23:08:00,69.7,68.2,29.70,SSE,167,5.0,7.0,95,0.00,,,0.10,Wunderground v.1.15,2013-09-22 03:08:00,
2013-09-21 23:14:00,69.6,68.1,29.70,South,186,5.0,7.0,95,0.00,,,0.10,Wunderground v.1.15,2013-09-22 03:14:00,
2013-09-21 23:19:00,69.6,68.1,29.70,SE,146,5.0,7.0,95,0.00,,,0.10,Wunderground v.1.15,2013-09-22 03:19:00,
2013-09-21 23:25:00,69.6,68.1,29.69,South,190,4.0,7.0,95,0.00,,,0.10,Wunderground v.1.15,2013-09-22 03:25:00,
2013-09-21 23:30:00,69.7,68.2,29.69,South,172,6.0,6.0,95,0.00,,,0.10,Wunderground v.1.15,2013-09-22 03:30:00,
2013-09-21 23:36:00,69.8,68.3,29.69,SSE,158,8.0,10.0,95,0.00,,,0.10,Wunderground v.1.15,2013-09-22 03:36:00,
2013-09-21 23:41:00,69.8,68.3,29.69,South,171,8.0,8.0,95,0.00,,,0.10,Wunderground v.1.15,2013-09-22 03:41:00,
2013-09-21 23:47:00,69.6,68.1,29.69,South,169,9.0,15.0,95,0.00,,,0.10,Wunderground v.1.15,2013-09-22 03:47:00,
2013-09-21 23:53:00,69.2,67.7,29.69,SSE,158,10.0,12.0,95,0.00,,,0.11,Wunderground v.1.15,2013-09-22 03:53:00,
2013-09-21 23:58:00,68.8,67.3,29.69,SSW,198,10.0,15.0,95,0.00,,,0.11,Wunderground v.1.15,2013-09-22 03:58:00,